sensor_id;sensor_type;location;lat;lon;timestamp;temperature;humidity
25192;DHT22;13143;50.924;5.320;2023-06-14T00:01:01;24.10;54.30
25192;DHT22;13143;50.924;5.320;2023-06-14T00:03:29;24.00;54.50
25192;DHT22;13143;50.924;5.320;2023-06-14T00:05:55;24.00;54.30
25192;DHT22;13143;50.924;5.320;2023-06-14T00:08:21;24.00;54.20
25192;DHT22;13143;50.924;5.320;2023-06-14T00:10:48;24.00;54.50
25192;DHT22;13143;50.924;5.320;2023-06-14T00:13:15;24.00;54.80
25192;DHT22;13143;50.924;5.320;2023-06-14T00:15:41;24.00;54.90
25192;DHT22;13143;50.924;5.320;2023-06-14T00:18:08;23.90;54.50
25192;DHT22;13143;50.924;5.320;2023-06-14T00:20:37;23.90;54.70
25192;DHT22;13143;50.924;5.320;2023-06-14T00:23:03;23.90;54.70
25192;DHT22;13143;50.924;5.320;2023-06-14T00:25:29;23.90;54.80
25192;DHT22;13143;50.924;5.320;2023-06-14T00:27:56;23.80;54.80
25192;DHT22;13143;50.924;5.320;2023-06-14T00:30:23;23.80;54.90
25192;DHT22;13143;50.924;5.320;2023-06-14T00:32:50;23.80;54.70
25192;DHT22;13143;50.924;5.320;2023-06-14T00:35:17;23.80;54.80
25192;DHT22;13143;50.924;5.320;2023-06-14T00:37:43;23.80;54.90
25192;DHT22;13143;50.924;5.320;2023-06-14T00:40:09;23.80;55.10
25192;DHT22;13143;50.924;5.320;2023-06-14T00:42:36;23.70;55.30
25192;DHT22;13143;50.924;5.320;2023-06-14T00:45:02;23.70;55.50
25192;DHT22;13143;50.924;5.320;2023-06-14T00:47:28;23.70;55.60
25192;DHT22;13143;50.924;5.320;2023-06-14T00:49:55;23.70;55.60
25192;DHT22;13143;50.924;5.320;2023-06-14T00:52:22;23.60;55.70
25192;DHT22;13143;50.924;5.320;2023-06-14T00:54:50;23.60;55.50
25192;DHT22;13143;50.924;5.320;2023-06-14T00:57:16;23.60;55.60
25192;DHT22;13143;50.924;5.320;2023-06-14T00:59:46;23.60;55.40
25192;DHT22;13143;50.924;5.320;2023-06-14T01:02:13;23.60;55.10
25192;DHT22;13143;50.924;5.320;2023-06-14T01:04:45;23.60;55.50
25192;DHT22;13143;50.924;5.320;2023-06-14T01:07:14;23.50;55.30
25192;DHT22;13143;50.924;5.320;2023-06-14T01:13:02;23.50;55.30
25192;DHT22;13143;50.924;5.320;2023-06-14T01:15:31;23.50;55.70
25192;DHT22;13143;50.924;5.320;2023-06-14T01:17:58;23.50;55.60
25192;DHT22;13143;50.924;5.320;2023-06-14T01:20:31;23.40;55.60
25192;DHT22;13143;50.924;5.320;2023-06-14T01:22:59;23.30;55.70
25192;DHT22;13143;50.924;5.320;2023-06-14T01:25:26;23.30;55.80
25192;DHT22;13143;50.924;5.320;2023-06-14T01:28:06;23.30;55.80
25192;DHT22;13143;50.924;5.320;2023-06-14T01:30:38;23.20;56.30
25192;DHT22;13143;50.924;5.320;2023-06-14T01:33:08;23.20;56.00
25192;DHT22;13143;50.924;5.320;2023-06-14T01:35:35;23.20;56.40
25192;DHT22;13143;50.924;5.320;2023-06-14T01:38:02;23.20;56.60
25192;DHT22;13143;50.924;5.320;2023-06-14T01:40:30;23.10;56.50
25192;DHT22;13143;50.924;5.320;2023-06-14T01:42:57;23.10;56.60
25192;DHT22;13143;50.924;5.320;2023-06-14T01:45:24;23.10;56.50
25192;DHT22;13143;50.924;5.320;2023-06-14T01:47:51;23.10;56.70
25192;DHT22;13143;50.924;5.320;2023-06-14T01:50:20;23.10;56.80
25192;DHT22;13143;50.924;5.320;2023-06-14T01:52:46;23.00;56.60
25192;DHT22;13143;50.924;5.320;2023-06-14T01:55:12;23.00;57.00
25192;DHT22;13143;50.924;5.320;2023-06-14T01:57:38;23.00;57.00
25192;DHT22;13143;50.924;5.320;2023-06-14T02:00:05;23.00;57.10
25192;DHT22;13143;50.924;5.320;2023-06-14T02:02:36;22.90;57.10
25192;DHT22;13143;50.924;5.320;2023-06-14T02:05:02;22.90;56.80
25192;DHT22;13143;50.924;5.320;2023-06-14T02:07:29;22.90;57.10
25192;DHT22;13143;50.924;5.320;2023-06-14T02:09:55;22.80;57.20
25192;DHT22;13143;50.924;5.320;2023-06-14T02:12:22;22.70;57.00
25192;DHT22;13143;50.924;5.320;2023-06-14T02:14:48;22.70;57.40
25192;DHT22;13143;50.924;5.320;2023-06-14T02:17:14;22.70;57.40
25192;DHT22;13143;50.924;5.320;2023-06-14T02:19:41;22.70;57.40
25192;DHT22;13143;50.924;5.320;2023-06-14T02:22:08;22.60;57.40
25192;DHT22;13143;50.924;5.320;2023-06-14T02:24:34;22.60;57.50
25192;DHT22;13143;50.924;5.320;2023-06-14T02:27:02;22.60;57.60
25192;DHT22;13143;50.924;5.320;2023-06-14T02:29:28;22.50;57.70
25192;DHT22;13143;50.924;5.320;2023-06-14T02:31:54;22.50;57.80
25192;DHT22;13143;50.924;5.320;2023-06-14T02:34:20;22.40;57.90
25192;DHT22;13143;50.924;5.320;2023-06-14T02:36:47;22.40;57.80
25192;DHT22;13143;50.924;5.320;2023-06-14T02:39:14;22.30;57.90
25192;DHT22;13143;50.924;5.320;2023-06-14T02:41:40;22.30;57.90
25192;DHT22;13143;50.924;5.320;2023-06-14T02:44:07;22.30;58.10
25192;DHT22;13143;50.924;5.320;2023-06-14T02:46:33;22.20;58.00
25192;DHT22;13143;50.924;5.320;2023-06-14T02:48:59;22.20;58.20
25192;DHT22;13143;50.924;5.320;2023-06-14T02:51:26;22.10;58.30
25192;DHT22;13143;50.924;5.320;2023-06-14T02:53:52;22.10;58.40
25192;DHT22;13143;50.924;5.320;2023-06-14T02:56:18;22.00;58.50
25192;DHT22;13143;50.924;5.320;2023-06-14T02:58:45;22.00;58.60
25192;DHT22;13143;50.924;5.320;2023-06-14T03:01:12;22.00;58.70
25192;DHT22;13143;50.924;5.320;2023-06-14T03:03:41;22.00;58.80
25192;DHT22;13143;50.924;5.320;2023-06-14T03:06:07;21.90;58.80
25192;DHT22;13143;50.924;5.320;2023-06-14T03:08:34;21.90;58.80
25192;DHT22;13143;50.924;5.320;2023-06-14T03:11:05;21.90;59.00
25192;DHT22;13143;50.924;5.320;2023-06-14T03:13:31;21.80;59.00
25192;DHT22;13143;50.924;5.320;2023-06-14T03:15:58;21.80;59.10
25192;DHT22;13143;50.924;5.320;2023-06-14T03:18:24;21.80;59.20
25192;DHT22;13143;50.924;5.320;2023-06-14T03:20:51;21.70;59.30
25192;DHT22;13143;50.924;5.320;2023-06-14T03:23:17;21.70;59.30
25192;DHT22;13143;50.924;5.320;2023-06-14T03:25:43;21.70;59.50
25192;DHT22;13143;50.924;5.320;2023-06-14T03:28:09;21.70;59.60
25192;DHT22;13143;50.924;5.320;2023-06-14T03:30:36;21.70;59.80
25192;DHT22;13143;50.924;5.320;2023-06-14T03:33:02;21.60;59.80
25192;DHT22;13143;50.924;5.320;2023-06-14T03:35:29;21.60;59.90
25192;DHT22;13143;50.924;5.320;2023-06-14T03:37:55;21.60;60.00
25192;DHT22;13143;50.924;5.320;2023-06-14T03:40:21;21.60;60.10
25192;DHT22;13143;50.924;5.320;2023-06-14T03:42:47;21.60;60.00
25192;DHT22;13143;50.924;5.320;2023-06-14T03:45:13;21.60;60.10
25192;DHT22;13143;50.924;5.320;2023-06-14T03:47:40;21.60;60.20
25192;DHT22;13143;50.924;5.320;2023-06-14T03:50:06;21.50;60.30
25192;DHT22;13143;50.924;5.320;2023-06-14T03:52:33;21.50;60.30
25192;DHT22;13143;50.924;5.320;2023-06-14T03:54:59;21.50;60.40
25192;DHT22;13143;50.924;5.320;2023-06-14T03:57:29;21.50;60.50
25192;DHT22;13143;50.924;5.320;2023-06-14T03:59:56;21.50;60.60
25192;DHT22;13143;50.924;5.320;2023-06-14T04:02:22;21.40;60.50
25192;DHT22;13143;50.924;5.320;2023-06-14T04:04:49;21.50;60.60
25192;DHT22;13143;50.924;5.320;2023-06-14T04:07:15;21.40;60.60
25192;DHT22;13143;50.924;5.320;2023-06-14T04:09:45;21.40;60.70
25192;DHT22;13143;50.924;5.320;2023-06-14T04:12:11;21.40;60.80
25192;DHT22;13143;50.924;5.320;2023-06-14T04:14:41;21.40;60.80
25192;DHT22;13143;50.924;5.320;2023-06-14T04:17:07;21.40;60.70
25192;DHT22;13143;50.924;5.320;2023-06-14T04:19:33;21.40;60.80
25192;DHT22;13143;50.924;5.320;2023-06-14T04:22:00;21.40;60.90
25192;DHT22;13143;50.924;5.320;2023-06-14T04:24:28;21.30;60.90
25192;DHT22;13143;50.924;5.320;2023-06-14T04:27:01;21.40;61.00
25192;DHT22;13143;50.924;5.320;2023-06-14T04:29:27;21.30;61.00
25192;DHT22;13143;50.924;5.320;2023-06-14T04:31:55;21.30;61.10
25192;DHT22;13143;50.924;5.320;2023-06-14T04:34:26;21.30;61.10
25192;DHT22;13143;50.924;5.320;2023-06-14T04:36:56;21.30;61.10
25192;DHT22;13143;50.924;5.320;2023-06-14T04:39:24;21.30;61.10
25192;DHT22;13143;50.924;5.320;2023-06-14T04:41:51;21.30;61.20
25192;DHT22;13143;50.924;5.320;2023-06-14T04:44:18;21.30;61.30
25192;DHT22;13143;50.924;5.320;2023-06-14T04:46:45;21.30;61.50
25192;DHT22;13143;50.924;5.320;2023-06-14T04:49:13;21.20;61.20
25192;DHT22;13143;50.924;5.320;2023-06-14T04:51:41;21.30;61.30
25192;DHT22;13143;50.924;5.320;2023-06-14T04:54:09;21.30;61.40
25192;DHT22;13143;50.924;5.320;2023-06-14T04:56:42;21.30;61.40
25192;DHT22;13143;50.924;5.320;2023-06-14T04:59:08;21.30;61.60
25192;DHT22;13143;50.924;5.320;2023-06-14T05:01:35;21.30;61.60
25192;DHT22;13143;50.924;5.320;2023-06-14T05:04:01;21.20;61.50
25192;DHT22;13143;50.924;5.320;2023-06-14T05:06:29;21.30;61.60
25192;DHT22;13143;50.924;5.320;2023-06-14T05:08:56;21.30;62.20
25192;DHT22;13143;50.924;5.320;2023-06-14T05:11:22;21.30;61.40
25192;DHT22;13143;50.924;5.320;2023-06-14T05:13:52;21.30;61.50
25192;DHT22;13143;50.924;5.320;2023-06-14T05:16:18;21.30;61.50
25192;DHT22;13143;50.924;5.320;2023-06-14T05:18:46;21.30;61.70
25192;DHT22;13143;50.924;5.320;2023-06-14T05:21:13;21.30;61.80
25192;DHT22;13143;50.924;5.320;2023-06-14T05:23:44;21.20;61.80
25192;DHT22;13143;50.924;5.320;2023-06-14T05:26:11;21.30;62.00
25192;DHT22;13143;50.924;5.320;2023-06-14T05:28:37;21.30;61.80
25192;DHT22;13143;50.924;5.320;2023-06-14T05:31:03;21.30;62.00
25192;DHT22;13143;50.924;5.320;2023-06-14T05:33:29;21.30;62.00
25192;DHT22;13143;50.924;5.320;2023-06-14T05:35:55;21.30;62.20
25192;DHT22;13143;50.924;5.320;2023-06-14T05:38:21;21.30;62.20
25192;DHT22;13143;50.924;5.320;2023-06-14T05:40:48;21.30;62.40
25192;DHT22;13143;50.924;5.320;2023-06-14T05:43:14;21.30;62.40
25192;DHT22;13143;50.924;5.320;2023-06-14T05:45:40;21.30;62.50
25192;DHT22;13143;50.924;5.320;2023-06-14T05:48:06;21.30;62.40
25192;DHT22;13143;50.924;5.320;2023-06-14T05:50:32;21.30;62.50
25192;DHT22;13143;50.924;5.320;2023-06-14T05:52:59;21.30;62.60
25192;DHT22;13143;50.924;5.320;2023-06-14T05:55:25;21.30;62.70
25192;DHT22;13143;50.924;5.320;2023-06-14T05:57:51;21.40;62.60
25192;DHT22;13143;50.924;5.320;2023-06-14T06:00:18;21.40;62.60
25192;DHT22;13143;50.924;5.320;2023-06-14T06:02:45;21.40;62.50
25192;DHT22;13143;50.924;5.320;2023-06-14T06:05:13;21.40;62.60
25192;DHT22;13143;50.924;5.320;2023-06-14T06:07:39;21.40;62.70
25192;DHT22;13143;50.924;5.320;2023-06-14T06:10:06;21.40;62.70
25192;DHT22;13143;50.924;5.320;2023-06-14T06:12:33;21.40;62.80
25192;DHT22;13143;50.924;5.320;2023-06-14T06:14:59;21.30;63.00
25192;DHT22;13143;50.924;5.320;2023-06-14T06:17:26;21.40;62.70
25192;DHT22;13143;50.924;5.320;2023-06-14T06:19:52;21.40;62.70
25192;DHT22;13143;50.924;5.320;2023-06-14T06:22:18;21.40;62.70
25192;DHT22;13143;50.924;5.320;2023-06-14T06:24:44;21.40;62.70
25192;DHT22;13143;50.924;5.320;2023-06-14T06:27:11;21.40;62.90
25192;DHT22;13143;50.924;5.320;2023-06-14T06:29:38;21.50;62.90
25192;DHT22;13143;50.924;5.320;2023-06-14T06:32:05;21.50;62.90
25192;DHT22;13143;50.924;5.320;2023-06-14T06:34:31;21.50;62.90
25192;DHT22;13143;50.924;5.320;2023-06-14T06:36:57;21.50;62.90
25192;DHT22;13143;50.924;5.320;2023-06-14T06:39:23;21.50;62.90
25192;DHT22;13143;50.924;5.320;2023-06-14T06:41:49;21.50;62.90
25192;DHT22;13143;50.924;5.320;2023-06-14T06:44:15;21.60;63.10
25192;DHT22;13143;50.924;5.320;2023-06-14T06:46:43;21.60;63.10
25192;DHT22;13143;50.924;5.320;2023-06-14T06:49:09;21.60;63.10
25192;DHT22;13143;50.924;5.320;2023-06-14T06:51:40;21.60;63.10
25192;DHT22;13143;50.924;5.320;2023-06-14T06:54:07;21.70;63.40
25192;DHT22;13143;50.924;5.320;2023-06-14T06:56:34;21.70;63.20
25192;DHT22;13143;50.924;5.320;2023-06-14T06:59:01;21.70;63.00
25192;DHT22;13143;50.924;5.320;2023-06-14T07:01:27;21.70;63.10
25192;DHT22;13143;50.924;5.320;2023-06-14T07:03:55;21.80;63.20
25192;DHT22;13143;50.924;5.320;2023-06-14T07:06:21;21.70;63.10
25192;DHT22;13143;50.924;5.320;2023-06-14T07:08:47;21.80;63.40
25192;DHT22;13143;50.924;5.320;2023-06-14T07:11:16;21.80;63.60
25192;DHT22;13143;50.924;5.320;2023-06-14T07:13:42;21.80;63.60
25192;DHT22;13143;50.924;5.320;2023-06-14T07:16:09;21.80;64.00
25192;DHT22;13143;50.924;5.320;2023-06-14T07:18:35;21.80;63.90
25192;DHT22;13143;50.924;5.320;2023-06-14T07:21:03;21.90;63.90
25192;DHT22;13143;50.924;5.320;2023-06-14T07:23:29;21.90;63.60
25192;DHT22;13143;50.924;5.320;2023-06-14T07:25:55;21.90;62.80
25192;DHT22;13143;50.924;5.320;2023-06-14T07:28:21;21.90;62.70
25192;DHT22;13143;50.924;5.320;2023-06-14T07:30:47;22.00;62.20
25192;DHT22;13143;50.924;5.320;2023-06-14T07:33:14;22.00;62.00
25192;DHT22;13143;50.924;5.320;2023-06-14T07:35:40;22.00;62.00
25192;DHT22;13143;50.924;5.320;2023-06-14T07:38:07;22.00;61.60
25192;DHT22;13143;50.924;5.320;2023-06-14T07:40:33;22.00;61.30
25192;DHT22;13143;50.924;5.320;2023-06-14T07:42:59;22.10;61.50
25192;DHT22;13143;50.924;5.320;2023-06-14T07:45:25;22.10;61.40
25192;DHT22;13143;50.924;5.320;2023-06-14T07:47:51;22.10;61.50
25192;DHT22;13143;50.924;5.320;2023-06-14T07:50:17;22.10;61.40
25192;DHT22;13143;50.924;5.320;2023-06-14T07:52:44;22.10;61.40
25192;DHT22;13143;50.924;5.320;2023-06-14T07:55:11;22.20;61.50
25192;DHT22;13143;50.924;5.320;2023-06-14T07:57:37;22.20;61.30
25192;DHT22;13143;50.924;5.320;2023-06-14T08:00:04;22.20;61.50
25192;DHT22;13143;50.924;5.320;2023-06-14T08:02:33;22.20;61.20
25192;DHT22;13143;50.924;5.320;2023-06-14T08:04:59;22.30;61.00
25192;DHT22;13143;50.924;5.320;2023-06-14T08:07:26;22.30;61.00
25192;DHT22;13143;50.924;5.320;2023-06-14T08:09:52;22.30;61.30
25192;DHT22;13143;50.924;5.320;2023-06-14T08:12:18;22.40;61.10
25192;DHT22;13143;50.924;5.320;2023-06-14T08:14:44;22.40;61.00
25192;DHT22;13143;50.924;5.320;2023-06-14T08:17:10;22.40;60.80
25192;DHT22;13143;50.924;5.320;2023-06-14T08:19:37;22.40;61.00
25192;DHT22;13143;50.924;5.320;2023-06-14T08:22:03;22.50;61.30
25192;DHT22;13143;50.924;5.320;2023-06-14T08:24:29;22.50;61.50
25192;DHT22;13143;50.924;5.320;2023-06-14T08:26:55;22.50;61.30
25192;DHT22;13143;50.924;5.320;2023-06-14T08:29:27;22.60;61.40
25192;DHT22;13143;50.924;5.320;2023-06-14T08:31:55;22.60;61.20
25192;DHT22;13143;50.924;5.320;2023-06-14T08:34:21;22.60;61.30
25192;DHT22;13143;50.924;5.320;2023-06-14T08:36:52;22.70;61.30
25192;DHT22;13143;50.924;5.320;2023-06-14T08:39:18;22.70;61.20
25192;DHT22;13143;50.924;5.320;2023-06-14T08:41:46;22.70;61.10
25192;DHT22;13143;50.924;5.320;2023-06-14T08:44:16;22.70;60.50
25192;DHT22;13143;50.924;5.320;2023-06-14T08:46:43;22.80;60.10
25192;DHT22;13143;50.924;5.320;2023-06-14T08:49:13;22.80;60.10
25192;DHT22;13143;50.924;5.320;2023-06-14T08:51:40;22.80;59.60
25192;DHT22;13143;50.924;5.320;2023-06-14T08:54:07;22.90;59.20
25192;DHT22;13143;50.924;5.320;2023-06-14T08:56:34;22.90;59.30
25192;DHT22;13143;50.924;5.320;2023-06-14T08:59:03;22.90;59.50
25192;DHT22;13143;50.924;5.320;2023-06-14T09:01:37;22.90;59.30
25192;DHT22;13143;50.924;5.320;2023-06-14T09:04:04;23.00;59.40
25192;DHT22;13143;50.924;5.320;2023-06-14T09:06:33;23.00;59.60
25192;DHT22;13143;50.924;5.320;2023-06-14T09:08:59;23.00;59.80
25192;DHT22;13143;50.924;5.320;2023-06-14T09:11:25;23.10;59.10
25192;DHT22;13143;50.924;5.320;2023-06-14T09:13:54;23.10;58.50
25192;DHT22;13143;50.924;5.320;2023-06-14T09:16:20;23.10;57.70
25192;DHT22;13143;50.924;5.320;2023-06-14T09:18:47;23.10;57.30
25192;DHT22;13143;50.924;5.320;2023-06-14T09:21:14;23.20;57.50
25192;DHT22;13143;50.924;5.320;2023-06-14T09:23:43;23.20;57.70
25192;DHT22;13143;50.924;5.320;2023-06-14T09:26:13;23.20;57.50
25192;DHT22;13143;50.924;5.320;2023-06-14T09:28:48;23.30;58.10
25192;DHT22;13143;50.924;5.320;2023-06-14T09:31:16;23.30;55.60
25192;DHT22;13143;50.924;5.320;2023-06-14T09:33:44;23.30;55.80
25192;DHT22;13143;50.924;5.320;2023-06-14T09:36:18;23.30;55.80
25192;DHT22;13143;50.924;5.320;2023-06-14T09:39:01;23.30;56.20
25192;DHT22;13143;50.924;5.320;2023-06-14T09:41:37;23.30;56.40
25192;DHT22;13143;50.924;5.320;2023-06-14T09:44:04;23.40;55.80
25192;DHT22;13143;50.924;5.320;2023-06-14T09:46:31;23.40;56.20
25192;DHT22;13143;50.924;5.320;2023-06-14T09:48:58;23.40;55.30
25192;DHT22;13143;50.924;5.320;2023-06-14T09:51:25;23.50;55.50
25192;DHT22;13143;50.924;5.320;2023-06-14T09:53:52;23.50;55.60
25192;DHT22;13143;50.924;5.320;2023-06-14T09:56:27;23.50;55.90
25192;DHT22;13143;50.924;5.320;2023-06-14T09:58:59;23.50;55.80
25192;DHT22;13143;50.924;5.320;2023-06-14T10:01:27;23.60;55.10
25192;DHT22;13143;50.924;5.320;2023-06-14T10:04:03;23.60;54.90
25192;DHT22;13143;50.924;5.320;2023-06-14T10:06:30;23.60;55.10
25192;DHT22;13143;50.924;5.320;2023-06-14T10:08:58;23.60;54.30
25192;DHT22;13143;50.924;5.320;2023-06-14T10:11:26;23.70;53.90
25192;DHT22;13143;50.924;5.320;2023-06-14T10:13:54;23.70;53.30
25192;DHT22;13143;50.924;5.320;2023-06-14T10:24:33;23.80;54.70
25192;DHT22;13143;50.924;5.320;2023-06-14T10:27:01;23.80;55.00
25192;DHT22;13143;50.924;5.320;2023-06-14T10:29:28;23.80;54.80
25192;DHT22;13143;50.924;5.320;2023-06-14T10:31:59;23.90;54.60
25192;DHT22;13143;50.924;5.320;2023-06-14T10:34:29;23.90;54.40
25192;DHT22;13143;50.924;5.320;2023-06-14T10:39:39;24.00;53.70
25192;DHT22;13143;50.924;5.320;2023-06-14T10:42:10;24.00;53.40
25192;DHT22;13143;50.924;5.320;2023-06-14T10:44:40;24.00;51.90
25192;DHT22;13143;50.924;5.320;2023-06-14T10:47:09;24.00;52.20
25192;DHT22;13143;50.924;5.320;2023-06-14T10:49:43;24.10;53.00
25192;DHT22;13143;50.924;5.320;2023-06-14T10:52:14;24.10;53.10
25192;DHT22;13143;50.924;5.320;2023-06-14T10:55:30;24.10;53.40
25192;DHT22;13143;50.924;5.320;2023-06-14T10:57:54;24.20;53.20
25192;DHT22;13143;50.924;5.320;2023-06-14T11:00:26;24.20;53.20
25192;DHT22;13143;50.924;5.320;2023-06-14T11:03:15;24.20;53.70
25192;DHT22;13143;50.924;5.320;2023-06-14T11:08:25;24.20;53.80
25192;DHT22;13143;50.924;5.320;2023-06-14T11:10:54;24.20;54.10
25192;DHT22;13143;50.924;5.320;2023-06-14T11:13:25;24.30;53.40
25192;DHT22;13143;50.924;5.320;2023-06-14T11:15:51;24.30;53.30
25192;DHT22;13143;50.924;5.320;2023-06-14T11:18:21;24.30;52.80
25192;DHT22;13143;50.924;5.320;2023-06-14T11:20:50;24.40;52.90
25192;DHT22;13143;50.924;5.320;2023-06-14T11:23:16;24.40;53.00
25192;DHT22;13143;50.924;5.320;2023-06-14T11:25:42;24.40;52.40
25192;DHT22;13143;50.924;5.320;2023-06-14T11:28:11;24.40;51.60
25192;DHT22;13143;50.924;5.320;2023-06-14T11:30:37;24.50;49.80
25192;DHT22;13143;50.924;5.320;2023-06-14T11:33:03;24.50;49.20
25192;DHT22;13143;50.924;5.320;2023-06-14T11:35:29;24.40;48.30
25192;DHT22;13143;50.924;5.320;2023-06-14T11:37:56;24.50;48.60
25192;DHT22;13143;50.924;5.320;2023-06-14T11:40:26;24.50;49.10
25192;DHT22;13143;50.924;5.320;2023-06-14T11:43:02;24.50;49.10
25192;DHT22;13143;50.924;5.320;2023-06-14T11:45:30;24.50;49.30
25192;DHT22;13143;50.924;5.320;2023-06-14T11:47:57;24.50;49.20
25192;DHT22;13143;50.924;5.320;2023-06-14T11:50:24;24.60;48.70
25192;DHT22;13143;50.924;5.320;2023-06-14T11:52:57;24.60;47.80
25192;DHT22;13143;50.924;5.320;2023-06-14T11:55:26;24.60;45.70
25192;DHT22;13143;50.924;5.320;2023-06-14T11:57:54;24.60;46.50
25192;DHT22;13143;50.924;5.320;2023-06-14T12:00:25;24.60;46.80
25192;DHT22;13143;50.924;5.320;2023-06-14T12:02:55;24.70;46.10
25192;DHT22;13143;50.924;5.320;2023-06-14T12:05:25;24.70;46.50
25192;DHT22;13143;50.924;5.320;2023-06-14T12:08:02;24.70;46.60
25192;DHT22;13143;50.924;5.320;2023-06-14T12:10:29;24.70;47.00
25192;DHT22;13143;50.924;5.320;2023-06-14T12:12:59;24.70;47.10
25192;DHT22;13143;50.924;5.320;2023-06-14T12:15:28;24.70;46.60
25192;DHT22;13143;50.924;5.320;2023-06-14T12:17:56;24.70;47.50
25192;DHT22;13143;50.924;5.320;2023-06-14T12:20:23;24.80;46.10
25192;DHT22;13143;50.924;5.320;2023-06-14T12:22:56;24.80;46.80
25192;DHT22;13143;50.924;5.320;2023-06-14T12:25:32;24.80;46.20
25192;DHT22;13143;50.924;5.320;2023-06-14T12:28:05;24.80;47.00
25192;DHT22;13143;50.924;5.320;2023-06-14T12:30:32;24.80;47.00
25192;DHT22;13143;50.924;5.320;2023-06-14T12:32:59;24.80;46.80
25192;DHT22;13143;50.924;5.320;2023-06-14T12:35:26;24.90;47.40
25192;DHT22;13143;50.924;5.320;2023-06-14T12:37:52;24.90;47.20
25192;DHT22;13143;50.924;5.320;2023-06-14T12:40:19;24.90;47.70
25192;DHT22;13143;50.924;5.320;2023-06-14T12:42:45;24.90;47.80
25192;DHT22;13143;50.924;5.320;2023-06-14T12:45:15;25.00;47.60
25192;DHT22;13143;50.924;5.320;2023-06-14T12:47:41;25.00;46.70
25192;DHT22;13143;50.924;5.320;2023-06-14T12:50:08;24.90;47.50
25192;DHT22;13143;50.924;5.320;2023-06-14T12:52:34;25.00;47.20
25192;DHT22;13143;50.924;5.320;2023-06-14T12:55:04;25.00;47.10
25192;DHT22;13143;50.924;5.320;2023-06-14T12:57:31;25.00;47.70
25192;DHT22;13143;50.924;5.320;2023-06-14T13:00:00;25.10;47.40
25192;DHT22;13143;50.924;5.320;2023-06-14T13:02:26;25.00;47.60
25192;DHT22;13143;50.924;5.320;2023-06-14T13:04:52;25.10;47.80
25192;DHT22;13143;50.924;5.320;2023-06-14T13:07:19;25.00;48.40
25192;DHT22;13143;50.924;5.320;2023-06-14T13:09:45;25.10;49.00
25192;DHT22;13143;50.924;5.320;2023-06-14T13:12:11;25.10;47.00
25192;DHT22;13143;50.924;5.320;2023-06-14T13:14:41;25.10;46.90
25192;DHT22;13143;50.924;5.320;2023-06-14T13:17:09;25.10;47.30
25192;DHT22;13143;50.924;5.320;2023-06-14T13:19:35;25.10;47.90
25192;DHT22;13143;50.924;5.320;2023-06-14T13:22:02;25.10;46.90
25192;DHT22;13143;50.924;5.320;2023-06-14T13:24:29;25.10;47.00
25192;DHT22;13143;50.924;5.320;2023-06-14T13:26:56;25.10;46.40
25192;DHT22;13143;50.924;5.320;2023-06-14T13:29:23;25.10;46.50
25192;DHT22;13143;50.924;5.320;2023-06-14T13:31:50;25.20;46.50
25192;DHT22;13143;50.924;5.320;2023-06-14T13:34:16;25.20;46.20
25192;DHT22;13143;50.924;5.320;2023-06-14T13:36:43;25.10;47.10
25192;DHT22;13143;50.924;5.320;2023-06-14T13:39:09;25.20;47.00
25192;DHT22;13143;50.924;5.320;2023-06-14T13:41:36;25.20;47.40
25192;DHT22;13143;50.924;5.320;2023-06-14T13:44:02;25.20;47.80
25192;DHT22;13143;50.924;5.320;2023-06-14T13:46:30;25.20;47.80
25192;DHT22;13143;50.924;5.320;2023-06-14T13:48:57;25.20;47.80
25192;DHT22;13143;50.924;5.320;2023-06-14T13:51:24;25.20;48.10
25192;DHT22;13143;50.924;5.320;2023-06-14T13:53:50;25.20;47.90
25192;DHT22;13143;50.924;5.320;2023-06-14T13:56:17;25.30;48.00
25192;DHT22;13143;50.924;5.320;2023-06-14T13:58:43;25.20;47.60
25192;DHT22;13143;50.924;5.320;2023-06-14T14:01:10;25.30;47.00
25192;DHT22;13143;50.924;5.320;2023-06-14T14:03:37;25.30;47.40
25192;DHT22;13143;50.924;5.320;2023-06-14T14:06:04;25.30;47.00
25192;DHT22;13143;50.924;5.320;2023-06-14T14:08:31;25.30;46.80
25192;DHT22;13143;50.924;5.320;2023-06-14T14:10:57;25.30;46.30
25192;DHT22;13143;50.924;5.320;2023-06-14T14:13:24;25.30;46.90
25192;DHT22;13143;50.924;5.320;2023-06-14T14:15:50;25.30;47.10
25192;DHT22;13143;50.924;5.320;2023-06-14T14:18:17;25.30;47.10
25192;DHT22;13143;50.924;5.320;2023-06-14T14:20:43;25.30;46.90
25192;DHT22;13143;50.924;5.320;2023-06-14T14:23:09;25.30;46.20
25192;DHT22;13143;50.924;5.320;2023-06-14T14:25:36;25.40;46.90
25192;DHT22;13143;50.924;5.320;2023-06-14T14:28:02;25.40;47.30
25192;DHT22;13143;50.924;5.320;2023-06-14T14:30:28;25.40;47.20
25192;DHT22;13143;50.924;5.320;2023-06-14T14:32:54;25.40;47.70
25192;DHT22;13143;50.924;5.320;2023-06-14T14:35:21;25.40;47.60
25192;DHT22;13143;50.924;5.320;2023-06-14T14:37:49;25.40;47.40
25192;DHT22;13143;50.924;5.320;2023-06-14T14:40:15;25.40;47.70
25192;DHT22;13143;50.924;5.320;2023-06-14T14:42:41;25.50;47.40
25192;DHT22;13143;50.924;5.320;2023-06-14T14:45:08;25.50;46.60
25192;DHT22;13143;50.924;5.320;2023-06-14T14:47:34;25.50;47.10
25192;DHT22;13143;50.924;5.320;2023-06-14T14:50:00;25.50;47.50
25192;DHT22;13143;50.924;5.320;2023-06-14T14:52:26;25.50;47.50
25192;DHT22;13143;50.924;5.320;2023-06-14T14:54:52;25.50;47.80
25192;DHT22;13143;50.924;5.320;2023-06-14T14:57:19;25.50;47.30
25192;DHT22;13143;50.924;5.320;2023-06-14T14:59:45;25.50;47.10
25192;DHT22;13143;50.924;5.320;2023-06-14T15:02:12;25.60;46.90
25192;DHT22;13143;50.924;5.320;2023-06-14T15:04:38;25.60;45.70
25192;DHT22;13143;50.924;5.320;2023-06-14T15:07:04;25.60;45.20
25192;DHT22;13143;50.924;5.320;2023-06-14T15:09:32;25.60;45.40
25192;DHT22;13143;50.924;5.320;2023-06-14T15:11:58;25.60;45.70
25192;DHT22;13143;50.924;5.320;2023-06-14T15:14:24;25.60;46.20
25192;DHT22;13143;50.924;5.320;2023-06-14T15:16:50;25.60;46.00
25192;DHT22;13143;50.924;5.320;2023-06-14T15:19:18;25.70;46.20
25192;DHT22;13143;50.924;5.320;2023-06-14T15:21:44;25.70;46.50
25192;DHT22;13143;50.924;5.320;2023-06-14T15:24:10;25.70;46.50
25192;DHT22;13143;50.924;5.320;2023-06-14T15:26:36;25.70;46.40
25192;DHT22;13143;50.924;5.320;2023-06-14T15:29:02;25.70;46.90
25192;DHT22;13143;50.924;5.320;2023-06-14T15:31:28;25.70;47.00
25192;DHT22;13143;50.924;5.320;2023-06-14T15:33:55;25.70;46.70
25192;DHT22;13143;50.924;5.320;2023-06-14T15:36:21;25.70;47.00
25192;DHT22;13143;50.924;5.320;2023-06-14T15:38:47;25.80;47.00
25192;DHT22;13143;50.924;5.320;2023-06-14T15:41:13;25.80;46.80
25192;DHT22;13143;50.924;5.320;2023-06-14T15:43:40;25.80;46.80
25192;DHT22;13143;50.924;5.320;2023-06-14T15:46:06;25.80;47.10
25192;DHT22;13143;50.924;5.320;2023-06-14T15:48:32;25.80;46.10